sensor_id;sensor_type;location;lat;lon;timestamp;P1;durP1;ratioP1;P2;durP2;ratioP2
61531;SDS011;47397;48.194;11.632;2024-03-02T00:00:08;11.65;;;8.32;;
61531;SDS011;47397;48.194;11.632;2024-03-02T00:01:10;11.52;;;8.13;;
61531;SDS011;47397;48.194;11.632;2024-03-02T00:02:10;11.18;;;7.70;;
61531;SDS011;47397;48.194;11.632;2024-03-02T00:03:11;9.73;;;7.70;;
61531;SDS011;47397;48.194;11.632;2024-03-02T00:04:13;11.13;;;7.82;;
61531;SDS011;47397;48.194;11.632;2024-03-02T00:05:14;12.82;;;7.80;;
61531;SDS011;47397;48.194;11.632;2024-03-02T00:06:15;11.57;;;8.18;;
61531;SDS011;47397;48.194;11.632;2024-03-02T00:07:20;10.60;;;7.97;;
61531;SDS011;47397;48.194;11.632;2024-03-02T00:08:22;11.75;;;7.63;;
61531;SDS011;47397;48.194;11.632;2024-03-02T00:09:23;9.65;;;7.57;;
61531;SDS011;47397;48.194;11.632;2024-03-02T00:10:24;11.23;;;7.95;;
61531;SDS011;47397;48.194;11.632;2024-03-02T00:11:26;11.88;;;7.78;;
61531;SDS011;47397;48.194;11.632;2024-03-02T00:12:26;11.15;;;7.72;;
61531;SDS011;47397;48.194;11.632;2024-03-02T00:13:27;9.50;;;6.93;;
61531;SDS011;47397;48.194;11.632;2024-03-02T00:14:28;10.27;;;7.95;;
61531;SDS011;47397;48.194;11.632;2024-03-02T00:15:34;10.60;;;8.48;;
61531;SDS011;47397;48.194;11.632;2024-03-02T00:16:40;11.85;;;8.05;;
61531;SDS011;47397;48.194;11.632;2024-03-02T00:17:41;10.32;;;7.50;;
61531;SDS011;47397;48.194;11.632;2024-03-02T00:18:41;10.82;;;7.45;;
61531;SDS011;47397;48.194;11.632;2024-03-02T00:19:43;11.25;;;7.90;;
61531;SDS011;47397;48.194;11.632;2024-03-02T00:20:44;12.50;;;8.00;;
61531;SDS011;47397;48.194;11.632;2024-03-02T00:21:44;10.95;;;8.25;;
61531;SDS011;47397;48.194;11.632;2024-03-02T00:22:45;12.25;;;8.00;;
61531;SDS011;47397;48.194;11.632;2024-03-02T00:23:45;12.18;;;8.35;;
61531;SDS011;47397;48.194;11.632;2024-03-02T00:24:45;10.35;;;7.93;;
61531;SDS011;47397;48.194;11.632;2024-03-02T00:25:47;10.88;;;8.73;;
61531;SDS011;47397;48.194;11.632;2024-03-02T00:26:48;11.77;;;8.38;;
61531;SDS011;47397;48.194;11.632;2024-03-02T00:27:49;11.95;;;8.45;;
61531;SDS011;47397;48.194;11.632;2024-03-02T00:28:49;10.80;;;8.05;;
61531;SDS011;47397;48.194;11.632;2024-03-02T00:29:53;10.05;;;7.90;;
61531;SDS011;47397;48.194;11.632;2024-03-02T00:30:57;11.02;;;7.82;;
61531;SDS011;47397;48.194;11.632;2024-03-02T00:31:58;10.90;;;7.95;;
61531;SDS011;47397;48.194;11.632;2024-03-02T00:33:00;11.65;;;8.10;;
61531;SDS011;47397;48.194;11.632;2024-03-02T00:34:01;10.05;;;7.75;;
61531;SDS011;47397;48.194;11.632;2024-03-02T00:35:07;10.68;;;7.85;;
61531;SDS011;47397;48.194;11.632;2024-03-02T00:36:07;12.00;;;8.13;;
61531;SDS011;47397;48.194;11.632;2024-03-02T00:37:08;10.77;;;7.47;;
61531;SDS011;47397;48.194;11.632;2024-03-02T00:38:09;10.05;;;7.38;;
61531;SDS011;47397;48.194;11.632;2024-03-02T00:39:11;12.35;;;8.23;;
61531;SDS011;47397;48.194;11.632;2024-03-02T00:40:12;9.18;;;7.18;;
61531;SDS011;47397;48.194;11.632;2024-03-02T00:41:16;10.90;;;7.80;;
61531;SDS011;47397;48.194;11.632;2024-03-02T00:42:19;12.05;;;7.68;;
61531;SDS011;47397;48.194;11.632;2024-03-02T00:43:29;10.18;;;7.55;;
61531;SDS011;47397;48.194;11.632;2024-03-02T00:44:42;10.85;;;7.22;;
61531;SDS011;47397;48.194;11.632;2024-03-02T00:45:43;10.75;;;7.43;;
61531;SDS011;47397;48.194;11.632;2024-03-02T00:46:43;11.18;;;7.72;;
61531;SDS011;47397;48.194;11.632;2024-03-02T00:47:44;11.93;;;8.35;;
61531;SDS011;47397;48.194;11.632;2024-03-02T00:48:47;10.93;;;7.63;;
61531;SDS011;47397;48.194;11.632;2024-03-02T00:49:51;10.07;;;7.50;;
61531;SDS011;47397;48.194;11.632;2024-03-02T00:50:53;11.27;;;7.43;;
61531;SDS011;47397;48.194;11.632;2024-03-02T00:51:54;11.00;;;7.85;;
61531;SDS011;47397;48.194;11.632;2024-03-02T00:52:54;12.30;;;8.52;;
61531;SDS011;47397;48.194;11.632;2024-03-02T00:53:55;10.57;;;7.97;;
61531;SDS011;47397;48.194;11.632;2024-03-02T00:54:57;11.77;;;8.45;;
61531;SDS011;47397;48.194;11.632;2024-03-02T00:55:58;11.05;;;8.38;;
61531;SDS011;47397;48.194;11.632;2024-03-02T00:56:58;11.77;;;8.40;;
61531;SDS011;47397;48.194;11.632;2024-03-02T00:57:59;10.77;;;8.30;;
61531;SDS011;47397;48.194;11.632;2024-03-02T00:58:59;12.43;;;8.55;;
61531;SDS011;47397;48.194;11.632;2024-03-02T01:00:00;12.68;;;8.68;;
61531;SDS011;47397;48.194;11.632;2024-03-02T01:01:06;11.05;;;8.82;;
61531;SDS011;47397;48.194;11.632;2024-03-02T01:02:07;12.55;;;8.60;;
61531;SDS011;47397;48.194;11.632;2024-03-02T01:03:07;14.05;;;9.32;;
61531;SDS011;47397;48.194;11.632;2024-03-02T01:04:08;13.40;;;9.07;;
61531;SDS011;47397;48.194;11.632;2024-03-02T01:05:08;12.68;;;9.07;;
61531;SDS011;47397;48.194;11.632;2024-03-02T01:06:10;12.20;;;8.63;;
61531;SDS011;47397;48.194;11.632;2024-03-02T01:07:10;11.88;;;8.77;;
61531;SDS011;47397;48.194;11.632;2024-03-02T01:08:11;12.23;;;9.10;;
61531;SDS011;47397;48.194;11.632;2024-03-02T01:09:11;13.23;;;9.90;;
61531;SDS011;47397;48.194;11.632;2024-03-02T01:10:12;12.90;;;8.50;;
61531;SDS011;47397;48.194;11.632;2024-03-02T01:11:12;11.85;;;8.60;;
61531;SDS011;47397;48.194;11.632;2024-03-02T01:12:13;12.00;;;8.85;;
61531;SDS011;47397;48.194;11.632;2024-03-02T01:13:13;10.40;;;8.43;;
61531;SDS011;47397;48.194;11.632;2024-03-02T01:14:13;11.93;;;8.75;;
61531;SDS011;47397;48.194;11.632;2024-03-02T01:15:14;10.93;;;8.43;;
61531;SDS011;47397;48.194;11.632;2024-03-02T01:16:14;11.75;;;8.90;;
61531;SDS011;47397;48.194;11.632;2024-03-02T01:17:15;10.93;;;8.15;;
61531;SDS011;47397;48.194;11.632;2024-03-02T01:18:15;11.32;;;8.38;;
61531;SDS011;47397;48.194;11.632;2024-03-02T01:19:16;11.70;;;8.32;;
61531;SDS011;47397;48.194;11.632;2024-03-02T01:20:16;11.93;;;8.23;;
61531;SDS011;47397;48.194;11.632;2024-03-02T01:21:18;11.88;;;9.20;;
61531;SDS011;47397;48.194;11.632;2024-03-02T01:22:18;10.90;;;8.50;;
61531;SDS011;47397;48.194;11.632;2024-03-02T01:23:19;11.98;;;9.02;;
61531;SDS011;47397;48.194;11.632;2024-03-02T01:24:19;13.05;;;8.55;;
61531;SDS011;47397;48.194;11.632;2024-03-02T01:25:19;12.90;;;8.52;;
61531;SDS011;47397;48.194;11.632;2024-03-02T01:26:23;10.68;;;8.10;;
61531;SDS011;47397;48.194;11.632;2024-03-02T01:27:23;11.43;;;8.15;;
61531;SDS011;47397;48.194;11.632;2024-03-02T01:28:23;9.77;;;7.95;;
61531;SDS011;47397;48.194;11.632;2024-03-02T01:29:24;10.38;;;7.82;;
61531;SDS011;47397;48.194;11.632;2024-03-02T01:30:24;10.43;;;8.32;;
61531;SDS011;47397;48.194;11.632;2024-03-02T01:31:25;10.45;;;8.15;;
61531;SDS011;47397;48.194;11.632;2024-03-02T01:32:25;11.57;;;8.43;;
61531;SDS011;47397;48.194;11.632;2024-03-02T01:33:25;11.38;;;8.23;;
61531;SDS011;47397;48.194;11.632;2024-03-02T01:34:26;9.95;;;7.57;;
61531;SDS011;47397;48.194;11.632;2024-03-02T01:35:26;12.93;;;8.45;;
61531;SDS011;47397;48.194;11.632;2024-03-02T01:36:28;12.05;;;8.82;;
61531;SDS011;47397;48.194;11.632;2024-03-02T01:39:39;10.80;;;7.40;;
61531;SDS011;47397;48.194;11.632;2024-03-02T01:40:39;10.95;;;7.90;;
61531;SDS011;47397;48.194;11.632;2024-03-02T01:41:39;10.90;;;7.75;;
61531;SDS011;47397;48.194;11.632;2024-03-02T01:42:40;11.23;;;8.00;;
61531;SDS011;47397;48.194;11.632;2024-03-02T01:43:40;11.50;;;8.30;;
61531;SDS011;47397;48.194;11.632;2024-03-02T01:44:41;11.43;;;8.00;;
61531;SDS011;47397;48.194;11.632;2024-03-02T01:45:41;12.25;;;8.80;;
61531;SDS011;47397;48.194;11.632;2024-03-02T01:46:41;10.18;;;8.18;;
61531;SDS011;47397;48.194;11.632;2024-03-02T01:47:42;11.02;;;8.23;;
61531;SDS011;47397;48.194;11.632;2024-03-02T01:48:42;10.52;;;8.10;;
61531;SDS011;47397;48.194;11.632;2024-03-02T01:49:42;9.82;;;8.32;;
61531;SDS011;47397;48.194;11.632;2024-03-02T01:50:43;10.48;;;8.00;;
61531;SDS011;47397;48.194;11.632;2024-03-02T01:51:44;11.65;;;7.15;;
61531;SDS011;47397;48.194;11.632;2024-03-02T01:52:45;11.50;;;8.13;;
61531;SDS011;47397;48.194;11.632;2024-03-02T01:53:45;10.15;;;7.68;;
61531;SDS011;47397;48.194;11.632;2024-03-02T01:54:45;9.75;;;7.70;;
61531;SDS011;47397;48.194;11.632;2024-03-02T01:55:45;8.70;;;6.70;;
61531;SDS011;47397;48.194;11.632;2024-03-02T01:56:46;12.30;;;7.95;;
61531;SDS011;47397;48.194;11.632;2024-03-02T01:57:46;12.23;;;7.80;;
61531;SDS011;47397;48.194;11.632;2024-03-02T01:58:47;11.23;;;7.85;;
61531;SDS011;47397;48.194;11.632;2024-03-02T01:59:47;11.43;;;8.40;;
61531;SDS011;47397;48.194;11.632;2024-03-02T02:00:48;10.30;;;7.80;;
61531;SDS011;47397;48.194;11.632;2024-03-02T02:01:48;11.35;;;7.80;;
61531;SDS011;47397;48.194;11.632;2024-03-02T02:02:48;9.95;;;7.50;;
61531;SDS011;47397;48.194;11.632;2024-03-02T02:03:49;10.20;;;7.75;;
61531;SDS011;47397;48.194;11.632;2024-03-02T02:04:49;10.80;;;7.60;;
61531;SDS011;47397;48.194;11.632;2024-03-02T02:05:50;10.82;;;7.82;;
61531;SDS011;47397;48.194;11.632;2024-03-02T02:06:51;11.15;;;7.70;;
61531;SDS011;47397;48.194;11.632;2024-03-02T02:07:52;9.93;;;7.65;;
61531;SDS011;47397;48.194;11.632;2024-03-02T02:08:52;10.05;;;7.85;;
61531;SDS011;47397;48.194;11.632;2024-03-02T02:09:52;11.38;;;7.45;;
61531;SDS011;47397;48.194;11.632;2024-03-02T02:10:53;10.32;;;7.20;;
61531;SDS011;47397;48.194;11.632;2024-03-02T02:11:53;10.27;;;7.60;;
61531;SDS011;47397;48.194;11.632;2024-03-02T02:12:53;10.27;;;7.20;;
61531;SDS011;47397;48.194;11.632;2024-03-02T02:13:54;9.80;;;7.95;;
61531;SDS011;47397;48.194;11.632;2024-03-02T02:14:54;9.82;;;7.45;;
61531;SDS011;47397;48.194;11.632;2024-03-02T02:15:55;10.52;;;7.38;;
61531;SDS011;47397;48.194;11.632;2024-03-02T02:16:55;10.05;;;8.15;;
61531;SDS011;47397;48.194;11.632;2024-03-02T02:17:55;10.75;;;8.00;;
61531;SDS011;47397;48.194;11.632;2024-03-02T02:18:56;9.73;;;7.15;;
61531;SDS011;47397;48.194;11.632;2024-03-02T02:19:56;10.23;;;7.28;;
61531;SDS011;47397;48.194;11.632;2024-03-02T02:20:57;10.32;;;7.03;;
61531;SDS011;47397;48.194;11.632;2024-03-02T02:21:58;9.75;;;6.80;;
61531;SDS011;47397;48.194;11.632;2024-03-02T02:22:59;9.38;;;7.10;;
61531;SDS011;47397;48.194;11.632;2024-03-02T02:24:00;10.60;;;7.25;;
61531;SDS011;47397;48.194;11.632;2024-03-02T02:25:01;9.57;;;6.93;;
61531;SDS011;47397;48.194;11.632;2024-03-02T02:26:01;8.75;;;7.43;;
61531;SDS011;47397;48.194;11.632;2024-03-02T02:27:01;8.93;;;6.63;;
61531;SDS011;47397;48.194;11.632;2024-03-02T02:28:02;10.20;;;7.40;;
61531;SDS011;47397;48.194;11.632;2024-03-02T02:29:02;9.43;;;7.47;;
61531;SDS011;47397;48.194;11.632;2024-03-02T02:30:03;10.98;;;7.82;;
61531;SDS011;47397;48.194;11.632;2024-03-02T02:31:04;9.13;;;6.40;;
61531;SDS011;47397;48.194;11.632;2024-03-02T02:32:04;10.63;;;7.15;;
61531;SDS011;47397;48.194;11.632;2024-03-02T02:33:05;9.30;;;6.90;;
61531;SDS011;47397;48.194;11.632;2024-03-02T02:34:05;10.00;;;6.78;;
61531;SDS011;47397;48.194;11.632;2024-03-02T02:35:06;9.13;;;6.72;;
61531;SDS011;47397;48.194;11.632;2024-03-02T02:36:07;9.43;;;7.15;;
61531;SDS011;47397;48.194;11.632;2024-03-02T02:37:09;8.38;;;6.22;;
61531;SDS011;47397;48.194;11.632;2024-03-02T02:38:09;9.98;;;6.93;;
61531;SDS011;47397;48.194;11.632;2024-03-02T02:39:10;9.10;;;7.15;;
61531;SDS011;47397;48.194;11.632;2024-03-02T02:40:14;10.07;;;6.72;;
61531;SDS011;47397;48.194;11.632;2024-03-02T02:41:14;8.60;;;6.85;;
61531;SDS011;47397;48.194;11.632;2024-03-02T02:42:15;9.05;;;6.82;;
61531;SDS011;47397;48.194;11.632;2024-03-02T02:43:15;8.60;;;6.80;;
61531;SDS011;47397;48.194;11.632;2024-03-02T02:44:15;9.68;;;6.68;;
61531;SDS011;47397;48.194;11.632;2024-03-02T02:45:16;9.85;;;7.20;;
61531;SDS011;47397;48.194;11.632;2024-03-02T02:46:16;10.55;;;7.65;;
61531;SDS011;47397;48.194;11.632;2024-03-02T02:47:17;9.30;;;7.18;;
61531;SDS011;47397;48.194;11.632;2024-03-02T02:48:17;9.43;;;6.85;;
61531;SDS011;47397;48.194;11.632;2024-03-02T02:49:17;10.60;;;7.60;;
61531;SDS011;47397;48.194;11.632;2024-03-02T02:50:18;9.85;;;7.55;;
61531;SDS011;47397;48.194;11.632;2024-03-02T02:51:18;9.52;;;7.38;;
61531;SDS011;47397;48.194;11.632;2024-03-02T02:52:20;10.40;;;7.32;;
61531;SDS011;47397;48.194;11.632;2024-03-02T02:53:20;10.95;;;7.07;;
61531;SDS011;47397;48.194;11.632;2024-03-02T02:54:20;9.55;;;7.60;;
61531;SDS011;47397;48.194;11.632;2024-03-02T02:55:21;8.93;;;7.22;;
61531;SDS011;47397;48.194;11.632;2024-03-02T02:56:21;10.73;;;7.38;;
61531;SDS011;47397;48.194;11.632;2024-03-02T02:57:21;12.02;;;7.57;;
61531;SDS011;47397;48.194;11.632;2024-03-02T02:58:22;9.90;;;7.35;;
61531;SDS011;47397;48.194;11.632;2024-03-02T02:59:22;9.13;;;6.88;;
61531;SDS011;47397;48.194;11.632;2024-03-02T03:00:22;10.05;;;7.50;;
61531;SDS011;47397;48.194;11.632;2024-03-02T03:01:23;10.35;;;6.82;;
61531;SDS011;47397;48.194;11.632;2024-03-02T03:02:23;9.02;;;7.22;;
61531;SDS011;47397;48.194;11.632;2024-03-02T03:03:23;8.57;;;7.05;;
61531;SDS011;47397;48.194;11.632;2024-03-02T03:04:24;9.57;;;6.60;;
61531;SDS011;47397;48.194;11.632;2024-03-02T03:05:24;8.88;;;6.68;;
61531;SDS011;47397;48.194;11.632;2024-03-02T03:06:24;8.68;;;7.15;;
61531;SDS011;47397;48.194;11.632;2024-03-02T03:07:26;7.88;;;6.20;;
61531;SDS011;47397;48.194;11.632;2024-03-02T03:08:26;10.02;;;7.38;;
61531;SDS011;47397;48.194;11.632;2024-03-02T03:09:27;9.02;;;6.72;;
61531;SDS011;47397;48.194;11.632;2024-03-02T03:10:27;8.77;;;6.70;;
61531;SDS011;47397;48.194;11.632;2024-03-02T03:11:27;8.82;;;6.70;;
61531;SDS011;47397;48.194;11.632;2024-03-02T03:12:28;7.80;;;6.10;;
61531;SDS011;47397;48.194;11.632;2024-03-02T03:13:28;9.13;;;6.80;;
61531;SDS011;47397;48.194;11.632;2024-03-02T03:14:28;8.65;;;6.38;;
61531;SDS011;47397;48.194;11.632;2024-03-02T03:15:28;9.68;;;6.60;;
61531;SDS011;47397;48.194;11.632;2024-03-02T03:16:29;9.30;;;6.82;;
61531;SDS011;47397;48.194;11.632;2024-03-02T03:17:29;8.18;;;6.18;;
61531;SDS011;47397;48.194;11.632;2024-03-02T03:18:29;8.20;;;6.30;;
61531;SDS011;47397;48.194;11.632;2024-03-02T03:19:30;9.55;;;6.68;;
61531;SDS011;47397;48.194;11.632;2024-03-02T03:20:30;8.85;;;6.45;;
61531;SDS011;47397;48.194;11.632;2024-03-02T03:21:31;8.18;;;6.53;;
61531;SDS011;47397;48.194;11.632;2024-03-02T03:22:32;8.98;;;6.13;;
61531;SDS011;47397;48.194;11.632;2024-03-02T03:23:33;8.23;;;6.20;;
61531;SDS011;47397;48.194;11.632;2024-03-02T03:24:33;8.52;;;6.82;;
61531;SDS011;47397;48.194;11.632;2024-03-02T03:25:33;10.18;;;7.32;;
61531;SDS011;47397;48.194;11.632;2024-03-02T03:26:35;8.43;;;6.47;;
61531;SDS011;47397;48.194;11.632;2024-03-02T03:27:35;8.57;;;6.93;;
61531;SDS011;47397;48.194;11.632;2024-03-02T03:28:36;9.45;;;7.15;;
61531;SDS011;47397;48.194;11.632;2024-03-02T03:29:36;9.90;;;6.80;;
61531;SDS011;47397;48.194;11.632;2024-03-02T03:30:37;8.52;;;6.85;;
61531;SDS011;47397;48.194;11.632;2024-03-02T03:31:38;8.85;;;6.55;;
61531;SDS011;47397;48.194;11.632;2024-03-02T03:32:38;7.63;;;6.55;;
61531;SDS011;47397;48.194;11.632;2024-03-02T03:33:39;8.27;;;6.22;;
61531;SDS011;47397;48.194;11.632;2024-03-02T03:34:39;9.27;;;6.55;;
61531;SDS011;47397;48.194;11.632;2024-03-02T03:35:39;7.43;;;6.10;;
61531;SDS011;47397;48.194;11.632;2024-03-02T03:36:40;8.77;;;6.82;;
61531;SDS011;47397;48.194;11.632;2024-03-02T03:37:41;10.57;;;6.72;;
61531;SDS011;47397;48.194;11.632;2024-03-02T03:38:42;8.60;;;6.50;;
61531;SDS011;47397;48.194;11.632;2024-03-02T03:39:42;9.35;;;6.60;;
61531;SDS011;47397;48.194;11.632;2024-03-02T03:40:42;9.80;;;7.15;;
61531;SDS011;47397;48.194;11.632;2024-03-02T03:41:43;9.48;;;7.32;;
61531;SDS011;47397;48.194;11.632;2024-03-02T03:42:43;9.77;;;7.00;;
61531;SDS011;47397;48.194;11.632;2024-03-02T03:43:43;10.82;;;7.00;;
61531;SDS011;47397;48.194;11.632;2024-03-02T03:44:44;10.45;;;7.80;;
61531;SDS011;47397;48.194;11.632;2024-03-02T03:45:44;10.18;;;7.18;;
61531;SDS011;47397;48.194;11.632;2024-03-02T03:46:44;9.32;;;7.20;;
61531;SDS011;47397;48.194;11.632;2024-03-02T03:47:45;9.45;;;6.32;;
61531;SDS011;47397;48.194;11.632;2024-03-02T03:48:45;10.00;;;6.55;;
61531;SDS011;47397;48.194;11.632;2024-03-02T03:49:45;10.68;;;7.55;;
61531;SDS011;47397;48.194;11.632;2024-03-02T03:50:46;9.88;;;7.35;;
61531;SDS011;47397;48.194;11.632;2024-03-02T03:51:46;9.32;;;7.68;;
61531;SDS011;47397;48.194;11.632;2024-03-02T03:52:48;9.55;;;7.55;;
61531;SDS011;47397;48.194;11.632;2024-03-02T03:53:48;8.82;;;6.50;;
61531;SDS011;47397;48.194;11.632;2024-03-02T03:54:48;9.93;;;7.43;;
61531;SDS011;47397;48.194;11.632;2024-03-02T03:55:48;9.75;;;7.10;;
61531;SDS011;47397;48.194;11.632;2024-03-02T03:56:49;11.07;;;7.53;;
61531;SDS011;47397;48.194;11.632;2024-03-02T03:57:49;10.00;;;7.50;;
61531;SDS011;47397;48.194;11.632;2024-03-02T03:58:49;11.40;;;7.55;;
61531;SDS011;47397;48.194;11.632;2024-03-02T03:59:50;10.77;;;7.65;;
61531;SDS011;47397;48.194;11.632;2024-03-02T04:00:50;10.90;;;7.95;;
61531;SDS011;47397;48.194;11.632;2024-03-02T04:01:50;11.75;;;8.40;;
61531;SDS011;47397;48.194;11.632;2024-03-02T04:02:51;11.13;;;8.35;;
61531;SDS011;47397;48.194;11.632;2024-03-02T04:03:51;12.25;;;8.20;;
61531;SDS011;47397;48.194;11.632;2024-03-02T04:04:51;11.07;;;8.40;;
61531;SDS011;47397;48.194;11.632;2024-03-02T04:05:52;13.15;;;9.05;;
61531;SDS011;47397;48.194;11.632;2024-03-02T04:06:52;11.15;;;8.43;;
61531;SDS011;47397;48.194;11.632;2024-03-02T04:07:53;10.93;;;8.50;;
61531;SDS011;47397;48.194;11.632;2024-03-02T04:08:54;10.05;;;7.57;;
61531;SDS011;47397;48.194;11.632;2024-03-02T04:09:54;12.40;;;8.63;;
61531;SDS011;47397;48.194;11.632;2024-03-02T04:10:54;11.82;;;8.60;;
61531;SDS011;47397;48.194;11.632;2024-03-02T04:11:55;10.52;;;7.90;;
61531;SDS011;47397;48.194;11.632;2024-03-02T04:12:55;14.05;;;8.75;;
61531;SDS011;47397;48.194;11.632;2024-03-02T04:13:55;12.05;;;8.93;;
61531;SDS011;47397;48.194;11.632;2024-03-02T04:14:56;12.90;;;9.50;;
61531;SDS011;47397;48.194;11.632;2024-03-02T04:15:56;12.80;;;9.20;;
61531;SDS011;47397;48.194;11.632;2024-03-02T04:16:56;11.60;;;8.88;;
61531;SDS011;47397;48.194;11.632;2024-03-02T04:17:57;12.80;;;9.40;;
61531;SDS011;47397;48.194;11.632;2024-03-02T04:18:57;13.15;;;9.25;;
61531;SDS011;47397;48.194;11.632;2024-03-02T04:19:57;10.65;;;8.13;;
61531;SDS011;47397;48.194;11.632;2024-03-02T04:20:58;11.63;;;8.48;;
61531;SDS011;47397;48.194;11.632;2024-03-02T04:21:58;10.93;;;8.98;;
61531;SDS011;47397;48.194;11.632;2024-03-02T04:23:00;13.13;;;9.52;;
61531;SDS011;47397;48.194;11.632;2024-03-02T04:24:00;12.60;;;9.75;;
61531;SDS011;47397;48.194;11.632;2024-03-02T04:25:01;13.52;;;9.35;;
61531;SDS011;47397;48.194;11.632;2024-03-02T04:26:01;12.63;;;9.15;;
61531;SDS011;47397;48.194;11.632;2024-03-02T04:27:02;11.18;;;8.50;;
61531;SDS011;47397;48.194;11.632;2024-03-02T04:28:02;12.00;;;8.60;;
61531;SDS011;47397;48.194;11.632;2024-03-02T04:29:03;14.10;;;9.52;;
61531;SDS011;47397;48.194;11.632;2024-03-02T04:30:04;13.40;;;9.38;;
61531;SDS011;47397;48.194;11.632;2024-03-02T04:31:05;15.02;;;9.90;;
61531;SDS011;47397;48.194;11.632;2024-03-02T04:32:05;13.77;;;9.27;;
61531;SDS011;47397;48.194;11.632;2024-03-02T04:33:06;12.52;;;9.32;;
61531;SDS011;47397;48.194;11.632;2024-03-02T04:34:06;13.70;;;9.35;;
61531;SDS011;47397;48.194;11.632;2024-03-02T04:35:07;13.93;;;8.98;;
61531;SDS011;47397;48.194;11.632;2024-03-02T04:36:07;16.17;;;10.35;;
61531;SDS011;47397;48.194;11.632;2024-03-02T04:37:08;12.82;;;9.43;;
61531;SDS011;47397;48.194;11.632;2024-03-02T04:38:09;12.30;;;9.45;;
61531;SDS011;47397;48.194;11.632;2024-03-02T04:39:10;15.43;;;10.43;;
61531;SDS011;47397;48.194;11.632;2024-03-02T04:40:10;12.52;;;9.38;;
61531;SDS011;47397;48.194;11.632;2024-03-02T04:41:11;14.05;;;8.90;;
61531;SDS011;47397;48.194;11.632;2024-03-02T04:42:12;12.13;;;9.15;;
61531;SDS011;47397;48.194;11.632;2024-03-02T04:43:12;12.23;;;9.55;;
61531;SDS011;47397;48.194;11.632;2024-03-02T04:44:12;12.27;;;9.02;;
61531;SDS011;47397;48.194;11.632;2024-03-02T04:45:12;13.07;;;8.05;;
61531;SDS011;47397;48.194;11.632;2024-03-02T04:46:13;12.05;;;7.85;;
61531;SDS011;47397;48.194;11.632;2024-03-02T04:47:13;11.20;;;7.95;;
61531;SDS011;47397;48.194;11.632;2024-03-02T04:48:13;10.65;;;8.10;;
61531;SDS011;47397;48.194;11.632;2024-03-02T04:49:14;13.00;;;8.55;;
61531;SDS011;47397;48.194;11.632;2024-03-02T04:50:14;12.63;;;8.55;;
61531;SDS011;47397;48.194;11.632;2024-03-02T04:51:14;11.73;;;8.50;;
61531;SDS011;47397;48.194;11.632;2024-03-02T04:52:15;10.90;;;7.88;;
61531;SDS011;47397;48.194;11.632;2024-03-02T04:53:16;11.93;;;8.50;;
61531;SDS011;47397;48.194;11.632;2024-03-02T04:54:17;11.13;;;7.90;;
61531;SDS011;47397;48.194;11.632;2024-03-02T04:55:17;11.68;;;8.38;;
61531;SDS011;47397;48.194;11.632;2024-03-02T04:56:17;11.57;;;8.70;;
61531;SDS011;47397;48.194;11.632;2024-03-02T04:57:18;9.93;;;7.90;;
61531;SDS011;47397;48.194;11.632;2024-03-02T04:58:18;11.07;;;8.27;;
61531;SDS011;47397;48.194;11.632;2024-03-02T04:59:18;10.80;;;8.15;;
61531;SDS011;47397;48.194;11.632;2024-03-02T05:00:19;11.48;;;8.10;;
61531;SDS011;47397;48.194;11.632;2024-03-02T05:01:20;11.10;;;8.38;;
61531;SDS011;47397;48.194;11.632;2024-03-02T05:02:20;12.07;;;8.48;;
61531;SDS011;47397;48.194;11.632;2024-03-02T05:03:20;9.70;;;7.40;;
61531;SDS011;47397;48.194;11.632;2024-03-02T05:04:20;11.43;;;7.80;;
61531;SDS011;47397;48.194;11.632;2024-03-02T05:05:21;12.23;;;8.05;;
61531;SDS011;47397;48.194;11.632;2024-03-02T05:06:21;9.30;;;7.10;;
61531;SDS011;47397;48.194;11.632;2024-03-02T05:07:21;10.55;;;8.25;;
61531;SDS011;47397;48.194;11.632;2024-03-02T05:08:23;10.18;;;8.05;;
61531;SDS011;47397;48.194;11.632;2024-03-02T05:09:23;10.52;;;7.47;;
61531;SDS011;47397;48.194;11.632;2024-03-02T05:10:24;12.35;;;7.75;;
61531;SDS011;47397;48.194;11.632;2024-03-02T05:11:24;12.77;;;9.00;;
61531;SDS011;47397;48.194;11.632;2024-03-02T05:12:24;9.90;;;7.78;;
61531;SDS011;47397;48.194;11.632;2024-03-02T05:13:25;11.63;;;7.97;;
61531;SDS011;47397;48.194;11.632;2024-03-02T05:14:25;11.30;;;8.55;;
61531;SDS011;47397;48.194;11.632;2024-03-02T05:15:25;11.57;;;7.82;;
61531;SDS011;47397;48.194;11.632;2024-03-02T05:16:26;10.15;;;7.65;;
61531;SDS011;47397;48.194;11.632;2024-03-02T05:17:26;11.60;;;7.35;;
61531;SDS011;47397;48.194;11.632;2024-03-02T05:18:26;11.30;;;8.27;;
61531;SDS011;47397;48.194;11.632;2024-03-02T05:19:27;12.32;;;8.45;;
61531;SDS011;47397;48.194;11.632;2024-03-02T05:20:27;12.23;;;8.40;;
61531;SDS011;47397;48.194;11.632;2024-03-02T05:21:27;11.15;;;8.20;;
61531;SDS011;47397;48.194;11.632;2024-03-02T05:22:28;11.40;;;8.10;;
61531;SDS011;47397;48.194;11.632;2024-03-02T05:23:29;13.38;;;8.80;;
61531;SDS011;47397;48.194;11.632;2024-03-02T05:24:29;12.15;;;8.23;;
61531;SDS011;47397;48.194;11.632;2024-03-02T05:25:30;10.77;;;7.65;;
61531;SDS011;47397;48.194;11.632;2024-03-02T05:26:30;10.93;;;7.68;;
61531;SDS011;47397;48.194;11.632;2024-03-02T05:27:30;11.77;;;8.15;;
61531;SDS011;47397;48.194;11.632;2024-03-02T05:28:31;11.07;;;8.07;;
61531;SDS011;47397;48.194;11.632;2024-03-02T05:29:31;12.20;;;8.82;;
61531;SDS011;47397;48.194;11.632;2024-03-02T05:30:31;11.48;;;8.23;;
61531;SDS011;47397;48.194;11.632;2024-03-02T05:31:32;13.70;;;8.82;;
61531;SDS011;47397;48.194;11.632;2024-03-02T05:32:32;11.63;;;9.07;;
61531;SDS011;47397;48.194;11.632;2024-03-02T05:33:33;11.18;;;8.40;;
61531;SDS011;47397;48.194;11.632;2024-03-02T05:34:33;12.85;;;9.43;;
61531;SDS011;47397;48.194;11.632;2024-03-02T05:35:33;11.90;;;9.23;;
61531;SDS011;47397;48.194;11.632;2024-03-02T05:36:34;11.35;;;9.27;;
61531;SDS011;47397;48.194;11.632;2024-03-02T05:37:34;10.95;;;8.88;;
61531;SDS011;47397;48.194;11.632;2024-03-02T05:38:36;11.27;;;8.30;;
61531;SDS011;47397;48.194;11.632;2024-03-02T05:39:37;10.82;;;8.35;;
61531;SDS011;47397;48.194;11.632;2024-03-02T05:40:37;13.18;;;9.00;;
61531;SDS011;47397;48.194;11.632;2024-03-02T05:41:37;12.48;;;9.02;;
61531;SDS011;47397;48.194;11.632;2024-03-02T05:42:38;10.70;;;7.97;;
61531;SDS011;47397;48.194;11.632;2024-03-02T05:43:38;13.60;;;9.00;;
61531;SDS011;47397;48.194;11.632;2024-03-02T05:44:38;12.50;;;8.50;;
61531;SDS011;47397;48.194;11.632;2024-03-02T05:45:39;11.07;;;8.68;;
61531;SDS011;47397;48.194;11.632;2024-03-02T05:46:39;11.43;;;8.15;;
61531;SDS011;47397;48.194;11.632;2024-03-02T05:47:39;11.90;;;8.43;;
61531;SDS011;47397;48.194;11.632;2024-03-02T05:48:40;11.23;;;8.23;;
61531;SDS011;47397;48.194;11.632;2024-03-02T05:49:40;11.68;;;8.80;;
61531;SDS011;47397;48.194;11.632;2024-03-02T05:50:40;11.52;;;8.52;;
61531;SDS011;47397;48.194;11.632;2024-03-02T05:51:41;14.00;;;9.35;;
61531;SDS011;47397;48.194;11.632;2024-03-02T05:52:41;11.88;;;8.88;;
61531;SDS011;47397;48.194;11.632;2024-03-02T05:53:43;11.85;;;8.65;;
61531;SDS011;47397;48.194;11.632;2024-03-02T05:54:43;10.40;;;8.15;;
61531;SDS011;47397;48.194;11.632;2024-03-02T05:55:43;13.57;;;8.35;;
61531;SDS011;47397;48.194;11.632;2024-03-02T05:56:44;11.93;;;8.15;;
61531;SDS011;47397;48.194;11.632;2024-03-02T05:57:44;14.02;;;7.97;;
61531;SDS011;47397;48.194;11.632;2024-03-02T05:58:44;11.02;;;7.72;;